Time;durP1;ratioP1;P1;durP2;ratioP2;P2;SDS_P1;SDS_P2;PMS_P1;PMS_P2;Temp;Humidity;BMP_temperature;BMP_pressure;BME280_temperature;BME280_humidity;BME280_pressure;Samples;Min_cycle;Max_cycle;Signal;HPM_P1;HPM_P2
2022/04/20 00:00:52;;;;;;;0.40;0.40;;;9.50;99.90;;;;;;5000623;28;20218;-82
2022/04/20 00:03:18;;;;;;;0.20;0.20;;;9.50;99.90;;;;;;4999756;28;20203;-82
2022/04/20 00:05:43;;;;;;;0.13;0.13;;;9.50;99.90;;;;;;4999759;28;20203;-80
2022/04/20 00:08:09;;;;;;;0.10;0.10;;;9.40;99.90;;;;;;5000235;28;20226;-81
2022/04/20 00:10:34;;;;;;;0.50;0.27;;;9.40;99.90;;;;;;5014937;28;20189;-81
2022/04/20 00:13:00;;;;;;;0.20;0.20;;;9.30;99.90;;;;;;5006213;28;20210;-81
2022/04/20 00:15:26;;;;;;;1.30;1.20;;;9.30;99.90;;;;;;5002526;28;20233;-81
2022/04/20 00:17:51;;;;;;;0.10;0.10;;;9.30;99.90;;;;;;4999724;28;20315;-81
2022/04/20 00:20:17;;;;;;;0.30;0.30;;;9.20;99.90;;;;;;5000873;28;20233;-80
2022/04/20 00:22:43;;;;;;;0.30;0.30;;;9.20;99.90;;;;;;5006882;28;20250;-81
2022/04/20 00:25:09;;;;;;;0.30;0.30;;;9.20;99.90;;;;;;5006812;28;20675;-81
2022/04/20 00:27:36;;;;;;;0.60;0.60;;;9.10;99.90;;;;;;5001828;28;20221;-81
2022/04/20 00:30:03;;;;;;;0.20;0.20;;;9.10;99.90;;;;;;5002414;28;20191;-81
2022/04/20 00:32:29;;;;;;;0.30;0.30;;;9.10;99.90;;;;;;4998821;28;20218;-81
2022/04/20 00:34:55;;;;;;;0.30;0.30;;;9.10;99.90;;;;;;4999713;28;20187;-81
2022/04/20 00:37:21;;;;;;;0.23;0.23;;;9.10;99.90;;;;;;5000186;28;20261;-82
2022/04/20 00:39:46;;;;;;;0.10;0.10;;;9.00;99.90;;;;;;5000471;28;20227;-81
2022/04/20 00:42:12;;;;;;;0.47;0.47;;;9.00;99.90;;;;;;5005425;28;20277;-81
2022/04/20 00:44:39;;;;;;;0.47;0.47;;;9.00;99.90;;;;;;5000223;28;20536;-81
2022/04/20 00:47:06;;;;;;;0.27;0.27;;;9.00;99.90;;;;;;5005533;28;20194;-82
2022/04/20 00:49:34;;;;;;;0.40;0.40;;;8.90;99.90;;;;;;5000981;28;20203;-82
2022/04/20 00:52:02;;;;;;;0.80;0.80;;;8.90;99.90;;;;;;5005313;28;20948;-81
2022/04/20 00:54:27;;;;;;;0.10;0.10;;;8.90;99.90;;;;;;5001408;28;20644;-81
2022/04/20 00:56:53;;;;;;;1.40;0.67;;;8.90;99.90;;;;;;5007050;28;20297;-81
2022/04/20 00:59:20;;;;;;;0.20;0.20;;;8.90;99.90;;;;;;5001089;28;20265;-81
2022/04/20 01:01:46;;;;;;;0.43;0.43;;;8.80;99.90;;;;;;5000780;28;20292;-81
2022/04/20 01:04:12;;;;;;;0.20;0.20;;;8.80;99.90;;;;;;5004952;28;20187;-81
2022/04/20 01:06:37;;;;;;;0.30;0.30;;;8.70;99.90;;;;;;5006438;28;20205;-82
2022/04/20 01:09:03;;;;;;;0.47;0.47;;;8.80;99.90;;;;;;5006305;28;20287;-81
2022/04/20 01:11:29;;;;;;;0.23;0.23;;;8.70;99.90;;;;;;4999877;28;20190;-81
2022/04/20 01:13:55;;;;;;;0.93;0.87;;;8.60;99.90;;;;;;5005731;28;20207;-81
2022/04/20 01:16:21;;;;;;;0.40;0.40;;;8.60;99.90;;;;;;4999571;28;20242;-81
2022/04/20 01:18:49;;;;;;;1.33;0.37;;;8.60;99.90;;;;;;5015093;28;20206;-81
2022/04/20 01:21:15;;;;;;;0.20;0.20;;;8.60;99.90;;;;;;4998942;28;20193;-80
2022/04/20 01:23:40;;;;;;;0.30;0.30;;;8.50;99.90;;;;;;5015620;28;20185;-81
2022/04/20 01:26:07;;;;;;;0.10;0.10;;;8.50;99.90;;;;;;5005827;28;20217;-81
2022/04/20 01:28:34;;;;;;;0.30;0.30;;;8.50;99.90;;;;;;5005698;28;20231;-81
2022/04/20 01:31:00;;;;;;;0.57;0.57;;;8.50;99.90;;;;;;5001307;28;20700;-81
2022/04/20 01:33:25;;;;;;;0.30;0.30;;;8.40;99.90;;;;;;5005023;28;20210;-80
2022/04/20 01:35:51;;;;;;;0.20;0.20;;;8.40;99.90;;;;;;5015055;28;20202;-81
2022/04/20 01:38:16;;;;;;;0.83;0.40;;;8.40;99.90;;;;;;5013559;28;20216;-81
2022/04/20 01:40:42;;;;;;;0.20;0.20;;;8.30;99.90;;;;;;5005019;28;20181;-81
2022/04/20 01:43:07;;;;;;;0.93;0.83;;;8.30;99.90;;;;;;5005314;28;20729;-81
2022/04/20 01:45:33;;;;;;;1.30;0.53;;;8.30;99.90;;;;;;5005485;28;20207;-81
2022/04/20 01:47:58;;;;;;;0.30;0.30;;;8.20;99.90;;;;;;5006257;28;20203;-81
2022/04/20 01:50:24;;;;;;;0.20;0.20;;;8.20;99.90;;;;;;4998778;28;20659;-80
2022/04/20 01:52:49;;;;;;;0.30;0.30;;;8.10;99.90;;;;;;5013090;28;20219;-80
2022/04/20 01:55:16;;;;;;;0.27;0.27;;;8.20;99.90;;;;;;5000052;28;20654;-81
2022/04/20 01:57:42;;;;;;;0.50;0.40;;;8.10;99.90;;;;;;5015190;28;20217;-81
2022/04/20 02:00:08;;;;;;;0.50;0.50;;;8.10;99.90;;;;;;5016654;28;20183;-80
2022/04/20 02:02:38;;;;;;;0.40;0.30;;;8.00;99.90;;;;;;4999683;28;20196;-81
2022/04/20 02:05:06;;;;;;;0.30;0.30;;;8.00;99.90;;;;;;5013303;28;20203;-80
2022/04/20 02:07:32;;;;;;;0.50;0.50;;;8.00;99.90;;;;;;5003945;28;20238;-81
2022/04/20 02:09:58;;;;;;;0.83;0.67;;;8.00;99.90;;;;;;5005625;28;20347;-81
2022/04/20 02:12:23;;;;;;;0.47;0.47;;;7.90;99.90;;;;;;5003897;28;20825;-81
2022/04/20 02:14:49;;;;;;;0.30;0.30;;;7.90;99.90;;;;;;4998962;28;20189;-81
2022/04/20 02:17:15;;;;;;;0.67;0.67;;;8.00;99.90;;;;;;5006781;28;20350;-81
2022/04/20 02:19:40;;;;;;;0.30;0.30;;;8.00;99.90;;;;;;5000459;28;20234;-81
2022/04/20 02:22:06;;;;;;;0.60;0.60;;;7.90;99.90;;;;;;5000311;28;20544;-80
2022/04/20 02:24:32;;;;;;;0.50;0.50;;;7.90;99.90;;;;;;5005243;28;20184;-81
2022/04/20 02:26:57;;;;;;;0.40;0.40;;;7.90;99.90;;;;;;5004924;28;20647;-81
2022/04/20 02:29:23;;;;;;;0.20;0.20;;;7.90;99.90;;;;;;5004913;28;20208;-83
2022/04/20 02:31:48;;;;;;;0.30;0.30;;;7.80;99.90;;;;;;4998842;28;20187;-83
2022/04/20 02:34:14;;;;;;;3.03;0.20;;;7.80;99.90;;;;;;4998503;28;20207;-83
2022/04/20 02:36:39;;;;;;;0.10;0.10;;;7.80;99.90;;;;;;4999190;28;20182;-84
2022/04/20 02:39:06;;;;;;;0.20;0.20;;;7.70;99.90;;;;;;5004524;28;20208;-84
2022/04/20 02:41:39;;;;;;;0.30;0.30;;;7.70;99.90;;;;;;5014522;28;20198;-84
2022/04/20 02:44:05;;;;;;;0.10;0.10;;;7.70;99.90;;;;;;5008039;28;20188;-84
2022/04/20 02:46:31;;;;;;;0.20;0.20;;;7.70;99.90;;;;;;5001141;28;20719;-83
2022/04/20 02:48:57;;;;;;;0.30;0.30;;;7.60;99.90;;;;;;5003319;28;20204;-83
2022/04/20 02:51:22;;;;;;;0.70;0.40;;;7.60;99.90;;;;;;5016457;28;20247;-83
2022/04/20 02:53:48;;;;;;;0.67;0.67;;;7.60;99.90;;;;;;5001915;28;20212;-83
2022/04/20 02:56:13;;;;;;;0.50;0.50;;;7.60;99.90;;;;;;5001946;28;20187;-84
2022/04/20 02:58:39;;;;;;;0.20;0.20;;;7.60;99.90;;;;;;5008861;28;20219;-83
2022/04/20 03:01:06;;;;;;;0.30;0.30;;;7.50;99.90;;;;;;5002716;28;20192;-84
2022/04/20 03:03:32;;;;;;;0.40;0.40;;;7.50;99.90;;;;;;5000503;28;20196;-83
2022/04/20 03:05:57;;;;;;;1.63;0.83;;;7.60;99.90;;;;;;5017494;28;20229;-83
2022/04/20 03:08:24;;;;;;;0.30;0.30;;;7.50;99.90;;;;;;5002593;28;20251;-83
2022/04/20 03:10:51;;;;;;;0.70;0.50;;;7.60;99.90;;;;;;5001817;28;21563;-83
2022/04/20 03:13:18;;;;;;;0.27;0.23;;;7.50;99.90;;;;;;4999994;28;20214;-83
2022/04/20 03:15:43;;;;;;;0.53;0.20;;;7.50;99.90;;;;;;5000804;28;20198;-83
2022/04/20 03:18:09;;;;;;;0.33;0.33;;;7.50;99.90;;;;;;5000789;28;20225;-84
2022/04/20 03:20:34;;;;;;;0.67;0.33;;;7.50;99.90;;;;;;5016929;28;20396;-84
2022/04/20 03:23:00;;;;;;;0.20;0.20;;;7.50;99.90;;;;;;5007701;28;20191;-83
2022/04/20 03:25:26;;;;;;;0.63;0.63;;;7.40;99.90;;;;;;5000505;28;20210;-83
2022/04/20 03:27:51;;;;;;;0.40;0.40;;;7.40;99.90;;;;;;5007101;28;20216;-84
2022/04/20 03:30:17;;;;;;;0.10;0.10;;;7.40;99.90;;;;;;5002427;28;20198;-84
2022/04/20 03:32:43;;;;;;;0.20;0.20;;;7.40;99.90;;;;;;5008085;28;20251;-83
2022/04/20 03:35:09;;;;;;;0.50;0.50;;;7.40;99.90;;;;;;5007392;28;20230;-84
2022/04/20 03:37:36;;;;;;;0.17;0.17;;;7.40;99.90;;;;;;5009297;28;20187;-84
2022/04/20 03:40:02;;;;;;;0.30;0.27;;;7.30;99.90;;;;;;5016031;28;20188;-83
2022/04/20 03:42:28;;;;;;;0.13;0.13;;;7.30;99.90;;;;;;5016026;28;20192;-83
2022/04/20 03:44:53;;;;;;;0.10;0.10;;;7.30;99.90;;;;;;5000511;28;20179;-84
2022/04/20 03:47:19;;;;;;;0.20;0.20;;;7.30;99.90;;;;;;5003168;28;20240;-84
2022/04/20 03:49:44;;;;;;;0.10;0.10;;;7.20;99.90;;;;;;5015693;28;20234;-84
2022/04/20 03:52:10;;;;;;;0.50;0.50;;;7.20;99.90;;;;;;5015789;28;20212;-83
2022/04/20 03:54:36;;;;;;;0.10;0.10;;;7.10;99.90;;;;;;5006496;28;20192;-84
2022/04/20 03:57:04;;;;;;;0.10;0.10;;;7.10;99.90;;;;;;5001042;28;20182;-84
2022/04/20 03:59:34;;;;;;;0.20;0.20;;;7.10;99.90;;;;;;5001376;28;20206;-83
2022/04/20 04:02:00;;;;;;;0.20;0.20;;;7.10;99.90;;;;;;5007793;28;20239;-84
2022/04/20 04:04:26;;;;;;;0.40;0.40;;;7.10;99.90;;;;;;5010059;28;20654;-84
2022/04/20 04:06:51;;;;;;;0.30;0.30;;;7.00;99.90;;;;;;4998979;28;20195;-84
2022/04/20 04:09:17;;;;;;;0.27;0.27;;;7.00;99.90;;;;;;5005821;28;20203;-84
2022/04/20 04:11:43;;;;;;;0.20;0.20;;;7.00;99.90;;;;;;5001282;28;20202;-84
2022/04/20 04:14:08;;;;;;;0.37;0.37;;;7.00;99.90;;;;;;4997926;28;20220;-84
2022/04/20 04:16:36;;;;;;;0.20;0.20;;;7.00;99.90;;;;;;5000109;28;20188;-84
2022/04/20 04:19:03;;;;;;;0.40;0.40;;;7.00;99.90;;;;;;5000480;28;20207;-84
2022/04/20 04:21:29;;;;;;;0.10;0.10;;;7.00;99.90;;;;;;4999814;28;20182;-84
2022/04/20 04:23:54;;;;;;;0.20;0.20;;;7.00;99.90;;;;;;5005565;28;20246;-83
2022/04/20 04:26:20;;;;;;;0.23;0.23;;;7.00;99.90;;;;;;5004952;28;20180;-83
2022/04/20 04:28:45;;;;;;;0.10;0.10;;;7.00;99.90;;;;;;5000315;28;20577;-84
2022/04/20 04:31:11;;;;;;;0.10;0.10;;;7.00;99.90;;;;;;5016609;28;20251;-84
2022/04/20 04:33:36;;;;;;;0.67;0.30;;;7.00;99.90;;;;;;5000400;28;20675;-84
2022/04/20 04:36:02;;;;;;;0.20;0.20;;;7.00;99.90;;;;;;5007236;28;20206;-84
2022/04/20 04:38:28;;;;;;;0.20;0.20;;;7.00;99.90;;;;;;5005994;28;20209;-84
2022/04/20 04:40:53;;;;;;;0.20;0.20;;;7.10;99.90;;;;;;4999018;28;21067;-84
2022/04/20 04:43:19;;;;;;;0.20;0.20;;;7.10;99.90;;;;;;5013417;28;20193;-84
2022/04/20 04:48:41;;;;;;;0.10;0.10;;;7.10;99.90;;;;;;4999835;28;20247;-83
2022/04/20 04:51:11;;;;;;;0.60;0.40;;;7.20;99.90;;;;;;5005279;28;20187;-83
2022/04/20 04:53:37;;;;;;;0.50;0.50;;;7.20;99.90;;;;;;5001040;28;20296;-84
2022/04/20 04:56:02;;;;;;;0.30;0.30;;;7.30;99.90;;;;;;5000051;28;20254;-84
2022/04/20 04:58:28;;;;;;;0.40;0.20;;;7.30;99.90;;;;;;5005691;28;20202;-84
2022/04/20 05:00:54;;;;;;;0.10;0.10;;;7.30;99.90;;;;;;5000074;28;20211;-84
2022/04/20 05:03:20;;;;;;;0.13;0.13;;;7.30;99.90;;;;;;4997184;28;20212;-84
2022/04/20 05:05:48;;;;;;;0.20;0.20;;;7.40;99.90;;;;;;5001938;28;20192;-83
2022/04/20 05:08:13;;;;;;;0.10;0.10;;;7.40;99.90;;;;;;5001830;28;20628;-84
2022/04/20 05:10:39;;;;;;;0.10;0.10;;;7.50;99.90;;;;;;5012506;28;20214;-84
2022/04/20 05:13:06;;;;;;;0.20;0.20;;;7.60;99.90;;;;;;4996873;28;20208;-84
2022/04/20 05:15:32;;;;;;;0.10;0.10;;;7.70;99.90;;;;;;5001477;28;20273;-84
2022/04/20 05:17:58;;;;;;;0.20;0.20;;;7.70;99.90;;;;;;5013752;28;20295;-84
2022/04/20 05:20:23;;;;;;;0.10;0.10;;;7.80;99.90;;;;;;5004743;28;20187;-84
2022/04/20 05:22:49;;;;;;;0.10;0.10;;;7.80;99.90;;;;;;4997497;28;20645;-84
2022/04/20 05:25:15;;;;;;;0.30;0.30;;;7.90;99.90;;;;;;5004503;28;20199;-83
2022/04/20 05:27:41;;;;;;;0.10;0.10;;;8.00;99.90;;;;;;5014476;28;20213;-83
2022/04/20 05:30:09;;;;;;;0.10;0.10;;;8.10;99.90;;;;;;4998262;28;20181;-82
2022/04/20 05:32:35;;;;;;;0.83;0.83;;;8.20;99.90;;;;;;4998536;28;20233;-81
2022/04/20 05:35:01;;;;;;;0.20;0.20;;;8.20;99.90;;;;;;5003796;28;20180;-82
2022/04/20 05:42:56;;;;;;;0.13;0.13;;;8.30;99.90;;;;;;4997972;28;20175;-78
2022/04/20 05:45:22;;;;;;;0.47;0.20;;;8.40;99.90;;;;;;5011020;28;20280;-78
2022/04/20 05:47:48;;;;;;;1.30;0.53;;;8.50;99.90;;;;;;4997400;28;21238;-78
2022/04/20 05:50:14;;;;;;;0.30;0.30;;;8.50;99.90;;;;;;4994258;28;20189;-78
2022/04/20 05:52:39;;;;;;;0.67;0.20;;;8.50;99.90;;;;;;4996565;28;20218;-78
2022/04/20 05:55:06;;;;;;;0.17;0.17;;;8.50;99.90;;;;;;4996697;28;20181;-78
2022/04/20 05:57:33;;;;;;;0.30;0.30;;;8.70;99.90;;;;;;5012709;28;20244;-78
2022/04/20 05:59:59;;;;;;;0.27;0.27;;;8.60;99.90;;;;;;5012342;28;20185;-80
2022/04/20 06:02:24;;;;;;;0.20;0.20;;;8.70;99.90;;;;;;4995705;28;20192;-78
2022/04/20 06:04:50;;;;;;;0.20;0.20;;;8.70;99.90;;;;;;5012243;28;20751;-78
2022/04/20 06:07:16;;;;;;;0.40;0.40;;;8.80;99.90;;;;;;4995960;28;20218;-77
2022/04/20 06:09:42;;;;;;;0.20;0.20;;;8.90;99.90;;;;;;5003471;28;20698;-78
2022/04/20 06:12:08;;;;;;;0.90;0.63;;;9.00;99.90;;;;;;4996619;28;20262;-79
2022/04/20 06:14:33;;;;;;;0.27;0.27;;;8.90;99.90;;;;;;4998235;28;20296;-78
2022/04/20 06:16:59;;;;;;;0.30;0.30;;;9.00;99.90;;;;;;5009141;28;20240;-78
2022/04/20 06:19:25;;;;;;;0.20;0.20;;;9.10;99.90;;;;;;5002586;28;20205;-78
2022/04/20 06:21:50;;;;;;;0.20;0.20;;;9.30;99.90;;;;;;5004802;28;20196;-78
2022/04/20 06:24:16;;;;;;;0.23;0.23;;;9.30;99.90;;;;;;5002236;28;20258;-79
2022/04/20 06:26:42;;;;;;;0.40;0.40;;;9.30;99.90;;;;;;5003749;28;20679;-79
2022/04/20 06:29:07;;;;;;;0.43;0.43;;;9.30;99.90;;;;;;5001249;28;20583;-78
2022/04/20 06:31:33;;;;;;;0.20;0.20;;;9.30;99.90;;;;;;5002758;28;20202;-78
2022/04/20 06:33:59;;;;;;;0.20;0.20;;;9.50;99.90;;;;;;5018435;28;20570;-78
2022/04/20 06:36:26;;;;;;;0.20;0.20;;;9.40;99.90;;;;;;5003759;28;20281;-79
2022/04/20 06:38:51;;;;;;;0.13;0.13;;;9.60;99.90;;;;;;5010218;28;20198;-79
2022/04/20 06:41:17;;;;;;;0.40;0.30;;;9.80;99.90;;;;;;5009617;28;20186;-79
2022/04/20 06:43:43;;;;;;;0.77;0.77;;;10.00;99.90;;;;;;5018317;28;20186;-79
2022/04/20 06:46:09;;;;;;;0.30;0.30;;;9.90;99.90;;;;;;5003582;28;20266;-78
2022/04/20 06:48:34;;;;;;;0.47;0.47;;;10.00;99.90;;;;;;5002885;28;20214;-78
2022/04/20 06:51:01;;;;;;;0.43;0.43;;;10.10;99.90;;;;;;5004543;28;20223;-79
2022/04/20 06:58:55;;;;;;;0.20;0.20;;;10.30;99.90;;;;;;5003446;28;20204;-79
2022/04/20 07:01:21;;;;;;;0.30;0.30;;;10.20;99.90;;;;;;5002148;28;20186;-79
2022/04/20 07:03:46;;;;;;;0.87;0.73;;;10.20;99.90;;;;;;5008116;28;20190;-78
2022/04/20 07:06:12;;;;;;;1.77;0.60;;;10.50;99.90;;;;;;5007115;28;20195;-78
2022/04/20 07:08:38;;;;;;;0.53;0.43;;;10.20;99.90;;;;;;5001091;28;20233;-79
2022/04/20 07:11:04;;;;;;;0.73;0.73;;;10.60;99.90;;;;;;4997463;28;20202;-79
2022/04/20 07:13:30;;;;;;;4.53;0.70;;;10.40;99.90;;;;;;5017072;28;20215;-78
2022/04/20 07:15:56;;;;;;;0.40;0.40;;;10.40;99.90;;;;;;5000738;28;20179;-78
2022/04/20 07:18:23;;;;;;;0.20;0.20;;;10.70;99.90;;;;;;5001743;28;20207;-79
2022/04/20 07:20:49;;;;;;;0.30;0.30;;;10.80;99.90;;;;;;5007838;28;20552;-79
2022/04/20 07:23:15;;;;;;;0.63;0.63;;;10.70;99.90;;;;;;5001538;28;20184;-79
2022/04/20 07:25:40;;;;;;;3.30;0.40;;;10.70;99.90;;;;;;5001406;28;20191;-79
2022/04/20 07:28:06;;;;;;;0.20;0.20;;;10.80;99.90;;;;;;4997870;28;20207;-77
2022/04/20 07:30:33;;;;;;;0.43;0.43;;;10.90;99.90;;;;;;4999048;28;20219;-77
2022/04/20 07:32:59;;;;;;;0.20;0.20;;;11.20;99.90;;;;;;4997284;28;20215;-78
2022/04/20 07:35:25;;;;;;;0.50;0.50;;;10.90;99.90;;;;;;5016055;28;20180;-79
2022/04/20 07:37:50;;;;;;;0.40;0.40;;;11.00;99.90;;;;;;4999316;28;20291;-78
2022/04/20 07:40:16;;;;;;;1.17;0.30;;;11.10;99.90;;;;;;5004580;28;20653;-78
2022/04/20 07:42:42;;;;;;;0.20;0.20;;;11.20;99.90;;;;;;5014354;28;20192;-78
2022/04/20 07:45:08;;;;;;;1.97;1.87;;;11.30;99.90;;;;;;4998632;28;20187;-79
2022/04/20 07:47:34;;;;;;;0.40;0.40;;;11.50;99.90;;;;;;4998133;28;20197;-78
2022/04/20 07:50:18;;;;;;;0.50;0.40;;;11.30;99.90;;;;;;4999812;28;20659;-78
2022/04/20 07:52:45;;;;;;;0.30;0.30;;;11.10;99.90;;;;;;4997996;28;20211;-79
2022/04/20 07:55:16;;;;;;;0.40;0.40;;;11.30;99.90;;;;;;4999139;28;20241;-78
2022/04/20 07:57:45;;;;;;;0.20;0.20;;;11.70;99.90;;;;;;5004522;28;21101;-78
2022/04/20 08:00:13;;;;;;;0.43;0.40;;;11.90;99.90;;;;;;5004651;28;20249;-78
2022/04/20 08:02:39;;;;;;;1.60;0.30;;;11.70;99.90;;;;;;5004104;28;20194;-78
2022/04/20 08:05:06;;;;;;;0.50;0.40;;;11.70;99.90;;;;;;5000853;28;20305;-78
2022/04/20 08:07:32;;;;;;;0.27;0.27;;;11.90;99.90;;;;;;4999789;28;20207;-79
2022/04/20 08:09:58;;;;;;;0.20;0.20;;;11.70;99.90;;;;;;5000273;28;20202;-79
2022/04/20 08:12:24;;;;;;;3.23;0.50;;;11.60;99.90;;;;;;4999262;28;20183;-78
2022/04/20 08:14:51;;;;;;;0.33;0.33;;;11.80;99.90;;;;;;5015427;28;20238;-78
2022/04/20 08:17:17;;;;;;;0.57;0.43;;;12.00;99.90;;;;;;4999631;28;20688;-78
2022/04/20 08:19:43;;;;;;;3.83;0.50;;;12.20;99.90;;;;;;4998152;28;20206;-78
2022/04/20 08:22:08;;;;;;;0.67;0.67;;;12.10;99.90;;;;;;4998753;28;20285;-78
2022/04/20 08:24:34;;;;;;;0.60;0.60;;;12.10;99.90;;;;;;4998087;28;20617;-79
2022/04/20 08:27:00;;;;;;;0.57;0.50;;;11.90;99.90;;;;;;5013014;28;21085;-79
2022/04/20 08:29:25;;;;;;;0.40;0.40;;;11.80;99.90;;;;;;5017030;28;20210;-80
2022/04/20 08:31:51;;;;;;;0.63;0.57;;;11.90;99.90;;;;;;5015127;28;20247;-81
2022/04/20 08:34:17;;;;;;;2.20;1.70;;;11.80;99.90;;;;;;5000053;28;20218;-81
2022/04/20 08:36:42;;;;;;;0.30;0.20;;;11.80;99.90;;;;;;4999731;28;20191;-82
2022/04/20 08:39:08;;;;;;;0.23;0.23;;;11.90;99.90;;;;;;4998958;28;20211;-81
2022/04/20 08:41:34;;;;;;;1.73;0.27;;;12.60;99.90;;;;;;5013957;28;20311;-81
2022/04/20 08:44:00;;;;;;;0.60;0.60;;;13.00;99.90;;;;;;5000166;28;20192;-80
2022/04/20 08:46:27;;;;;;;0.80;0.27;;;12.30;99.90;;;;;;5003777;28;20199;-81
2022/04/20 08:48:53;;;;;;;0.77;0.77;;;12.60;99.90;;;;;;5005577;28;20203;-81
2022/04/20 08:51:18;;;;;;;0.83;0.40;;;12.90;99.90;;;;;;5003922;28;20197;-81
2022/04/20 08:53:44;;;;;;;0.30;0.30;;;12.60;99.90;;;;;;5002879;28;21230;-81
2022/04/20 08:58:56;;;;;;;0.47;0.47;;;12.10;99.90;;;;;;4997779;28;20222;-80
2022/04/20 09:01:21;;;;;;;1.13;0.80;;;12.30;99.90;;;;;;4998576;28;20191;-81
2022/04/20 09:03:47;;;;;;;2.20;0.53;;;12.60;99.90;;;;;;4996820;28;20195;-81
2022/04/20 09:06:16;;;;;;;0.60;0.60;;;12.70;99.90;;;;;;5013345;28;20202;-81
2022/04/20 09:08:44;;;;;;;0.20;0.20;;;12.70;99.90;;;;;;4999195;28;20219;-82
2022/04/20 09:11:10;;;;;;;0.87;0.40;;;12.80;99.90;;;;;;5004815;28;20310;-82
2022/04/20 09:13:41;;;;;;;0.20;0.20;;;12.90;99.90;;;;;;5003523;28;20326;-81
2022/04/20 09:16:13;;;;;;;0.90;0.53;;;13.00;99.90;;;;;;4998319;28;20193;-81
2022/04/20 09:18:41;;;;;;;0.40;0.40;;;13.00;99.90;;;;;;5004228;28;20214;-81
2022/04/20 09:21:13;;;;;;;0.30;0.30;;;12.90;99.90;;;;;;4998877;28;20179;-81
2022/04/20 09:23:39;;;;;;;1.70;0.60;;;13.00;99.90;;;;;;5012688;28;20208;-82
2022/04/20 09:26:09;;;;;;;0.50;0.50;;;13.10;99.90;;;;;;5004055;28;20179;-80
2022/04/20 09:28:37;;;;;;;0.50;0.50;;;13.30;99.90;;;;;;5005075;28;20241;-81
2022/04/20 09:31:03;;;;;;;0.50;0.40;;;13.70;99.90;;;;;;4997089;28;20175;-81
2022/04/20 09:33:46;;;;;;;0.30;0.30;;;13.50;99.90;;;;;;4997990;28;20203;-81
2022/04/20 09:36:16;;;;;;;0.30;0.30;;;13.20;99.90;;;;;;4999027;28;20195;-81
2022/04/20 09:39:01;;;;;;;0.40;0.40;;;13.30;99.90;;;;;;4998663;28;20676;-81
2022/04/20 09:41:26;;;;;;;1.60;1.60;;;14.10;99.90;;;;;;4997633;28;20424;-81
2022/04/20 09:44:09;;;;;;;0.40;0.40;;;13.90;99.90;;;;;;4996558;28;20190;-81
2022/04/20 09:49:34;;;;;;;1.33;1.20;;;13.20;99.90;;;;;;4997451;28;21085;-81
2022/04/20 09:52:09;;;;;;;0.40;0.37;;;13.30;99.90;;;;;;5004434;28;20220;-81
2022/04/20 09:54:36;;;;;;;0.47;0.47;;;13.70;99.90;;;;;;4998658;28;20573;-81
2022/04/20 09:57:13;;;;;;;0.33;0.33;;;13.40;99.90;;;;;;5011262;28;20652;-81
2022/04/20 09:59:55;;;;;;;0.20;0.20;;;13.60;99.90;;;;;;4997624;28;20260;-81
2022/04/20 10:02:20;;;;;;;0.40;0.40;;;13.60;99.90;;;;;;5014099;28;20192;-81
2022/04/20 10:04:47;;;;;;;0.20;0.20;;;13.60;99.90;;;;;;5014685;28;20724;-81
2022/04/20 10:07:13;;;;;;;0.27;0.27;;;14.30;99.90;;;;;;5004901;28;20294;-83
2022/04/20 10:09:39;;;;;;;0.50;0.50;;;14.30;99.90;;;;;;4999123;28;20289;-84
2022/04/20 10:12:07;;;;;;;0.53;0.27;;;13.50;99.90;;;;;;4997292;28;20269;-85
2022/04/20 10:17:22;;;;;;;2.57;0.30;;;13.70;99.90;;;;;;5000001;28;20333;-82
2022/04/20 10:19:48;;;;;;;0.20;0.20;;;13.90;99.90;;;;;;5003001;28;20212;-80
2022/04/20 10:22:18;;;;;;;0.37;0.37;;;14.10;99.90;;;;;;4998263;28;20174;-80
2022/04/20 10:24:45;;;;;;;0.40;0.30;;;14.20;99.90;;;;;;5006697;28;20261;-81
2022/04/20 10:27:41;;;;;;;0.87;0.40;;;14.40;99.90;;;;;;4998583;28;20188;-80
2022/04/20 10:30:18;;;;;;;0.40;0.40;;;14.50;99.90;;;;;;5004143;28;20207;-81
2022/04/20 10:33:12;;;;;;;0.40;0.40;;;14.60;99.90;;;;;;4997851;28;20210;-81
2022/04/20 10:35:54;;;;;;;0.30;0.23;;;14.70;99.90;;;;;;5002953;28;20215;-82
2022/04/20 10:38:20;;;;;;;0.30;0.30;;;14.10;99.90;;;;;;4999921;28;20574;-82
2022/04/20 10:41:05;;;;;;;0.23;0.23;;;14.30;99.90;;;;;;5014560;28;20268;-81
2022/04/20 10:43:31;;;;;;;0.33;0.30;;;14.30;99.90;;;;;;5014820;28;20236;-82
2022/04/20 10:46:16;;;;;;;0.57;0.40;;;14.30;99.90;;;;;;5013475;28;20807;-81
2022/04/20 10:49:00;;;;;;;0.67;0.37;;;14.40;99.90;;;;;;4996706;28;20211;-79
2022/04/20 10:51:40;;;;;;;0.87;0.83;;;14.80;99.90;;;;;;4998264;28;20659;-83
2022/04/20 10:54:24;;;;;;;0.60;0.60;;;14.40;99.90;;;;;;5015792;28;20226;-85
2022/04/20 10:57:09;;;;;;;0.30;0.30;;;14.30;99.90;;;;;;5005861;28;20185;-85
2022/04/20 10:59:35;;;;;;;0.20;0.20;;;14.30;99.90;;;;;;4997365;28;20218;-85
2022/04/20 11:02:06;;;;;;;0.47;0.43;;;14.60;99.90;;;;;;5001537;28;20220;-84
2022/04/20 11:04:33;;;;;;;0.87;0.50;;;14.70;99.90;;;;;;5003884;28;20194;-85
2022/04/20 11:06:59;;;;;;;2.43;1.07;;;14.70;99.90;;;;;;5005850;28;20209;-85
2022/04/20 11:09:44;;;;;;;1.60;0.60;;;15.00;99.90;;;;;;5017578;28;20327;-85
2022/04/20 11:21:04;;;;;;;0.50;0.43;;;14.80;99.90;;;;;;5005986;28;20213;-85
2022/04/20 11:23:48;;;;;;;0.30;0.30;;;14.80;99.90;;;;;;5015131;28;20222;-85
2022/04/20 11:26:21;;;;;;;0.40;0.40;;;15.10;99.90;;;;;;5016999;28;20681;-85
2022/04/20 11:28:50;;;;;;;0.30;0.30;;;15.30;99.90;;;;;;4998378;28;20261;-85
2022/04/20 11:31:16;;;;;;;0.20;0.20;;;15.70;99.90;;;;;;5002786;28;20199;-85
2022/04/20 11:33:42;;;;;;;0.57;0.57;;;16.20;99.90;;;;;;5017756;28;20211;-84
2022/04/20 11:36:12;;;;;;;0.47;0.40;;;15.30;99.90;;;;;;5011020;28;20200;-85
2022/04/20 11:38:42;;;;;;;0.50;0.50;;;15.20;99.90;;;;;;4999560;28;21250;-86
2022/04/20 11:41:09;;;;;;;0.57;0.30;;;15.50;99.90;;;;;;5003259;28;20270;-86
2022/04/20 11:43:36;;;;;;;0.37;0.37;;;15.60;99.90;;;;;;5002117;28;20203;-84
2022/04/20 11:46:03;;;;;;;2.57;0.60;;;15.10;99.60;;;;;;5014787;28;20196;-83
2022/04/20 11:48:29;;;;;;;0.20;0.20;;;15.30;99.90;;;;;;5014662;28;20211;-85
2022/04/20 11:50:59;;;;;;;0.33;0.33;;;15.70;99.90;;;;;;5016354;28;20191;-83
2022/04/20 11:53:38;;;;;;;0.63;0.63;;;15.90;99.80;;;;;;5010127;28;20904;-83
2022/04/20 11:56:12;;;;;;;0.20;0.20;;;15.80;99.20;;;;;;5010082;28;20247;-83
2022/04/20 11:58:38;;;;;;;0.33;0.33;;;15.60;99.80;;;;;;5014133;28;20584;-83
2022/04/20 12:01:06;;;;;;;0.03;0.03;;;15.80;99.90;;;;;;5007955;28;20187;-84
2022/04/20 12:03:37;;;;;;;1.37;0.40;;;15.90;99.80;;;;;;5012358;28;20230;-84
2022/04/20 12:06:08;;;;;;;0.40;0.30;;;15.90;99.40;;;;;;5007321;28;20189;-83
2022/04/20 12:08:36;;;;;;;0.53;0.43;;;15.70;99.30;;;;;;5007263;28;20310;-84
2022/04/20 12:11:08;;;;;;;0.50;0.50;;;15.80;99.60;;;;;;5007715;28;20191;-83
2022/04/20 12:13:35;;;;;;;0.30;0.30;;;16.10;99.90;;;;;;5020058;28;20274;-84
2022/04/20 12:16:01;;;;;;;0.40;0.40;;;16.40;99.90;;;;;;5019059;28;20188;-84
2022/04/20 12:18:36;;;;;;;2.20;0.40;;;16.40;99.50;;;;;;5021784;28;20203;-84
2022/04/20 12:21:03;;;;;;;0.30;0.30;;;16.10;99.60;;;;;;5011617;28;20183;-84
2022/04/20 12:23:35;;;;;;;1.57;0.47;;;16.10;99.80;;;;;;5021818;28;20210;-83
2022/04/20 12:26:05;;;;;;;0.30;0.30;;;16.20;99.30;;;;;;5013145;28;20187;-82
2022/04/20 12:28:36;;;;;;;0.30;0.30;;;16.70;99.90;;;;;;5015039;28;20215;-82
2022/04/20 12:31:03;;;;;;;1.40;0.40;;;16.60;99.30;;;;;;5007646;28;20180;-81
2022/04/20 12:33:29;;;;;;;0.67;0.67;;;16.90;99.10;;;;;;5015664;28;20221;-81
2022/04/20 12:36:08;;;;;;;0.40;0.40;;;16.90;98.90;;;;;;5011263;28;20191;-81
2022/04/20 12:38:46;;;;;;;1.07;0.33;;;17.00;98.60;;;;;;5009749;28;20214;-80
2022/04/20 12:41:37;;;;;;;1.40;0.57;;;16.60;98.80;;;;;;5010328;28;20221;-80
2022/04/20 12:44:35;;;;;;;0.20;0.20;;;16.40;99.20;;;;;;5007604;28;20195;-79
2022/04/20 12:47:01;;;;;;;0.63;0.50;;;16.70;99.40;;;;;;5004524;28;20182;-80
2022/04/20 12:49:27;;;;;;;0.30;0.30;;;16.60;99.10;;;;;;5019891;28;20261;-80
2022/04/20 12:51:53;;;;;;;0.57;0.40;;;16.60;99.40;;;;;;5006328;28;20187;-84
2022/04/20 12:54:25;;;;;;;1.07;0.73;;;16.80;99.60;;;;;;5024842;28;20215;-84
2022/04/20 13:02:22;;;;;;;0.10;0.10;;;16.60;99.70;;;;;;5014193;28;20194;-84
2022/04/20 13:04:48;;;;;;;0.53;0.47;;;16.40;99.40;;;;;;5008835;28;20191;-84
2022/04/20 13:07:14;;;;;;;0.20;0.20;;;16.40;99.90;;;;;;5005916;28;20205;-83
2022/04/20 13:09:40;;;;;;;0.40;0.40;;;16.40;99.80;;;;;;5005251;28;20203;-84
2022/04/20 13:12:06;;;;;;;0.33;0.33;;;16.70;99.90;;;;;;5012289;28;20261;-84
2022/04/20 13:14:31;;;;;;;0.50;0.50;;;17.00;99.90;;;;;;5012936;28;20199;-84
2022/04/20 13:16:57;;;;;;;0.30;0.30;;;16.70;99.90;;;;;;5008257;28;20214;-82
2022/04/20 13:19:23;;;;;;;0.30;0.30;;;17.10;99.90;;;;;;5012072;28;20529;-84
2022/04/20 13:21:48;;;;;;;0.30;0.30;;;17.10;99.90;;;;;;5021760;28;20186;-83
2022/04/20 13:27:54;;;;;;;0.60;0.50;;;16.60;99.90;;;;;;5013029;28;20199;-82
2022/04/20 13:29:45;;;;;;;0.37;0.37;;;17.10;99.90;;;;;;5009593;28;20215;-82
2022/04/20 13:32:11;;;;;;;0.40;0.40;;;17.20;99.90;;;;;;5014615;28;20189;-81
2022/04/20 13:34:36;;;;;;;0.20;0.20;;;17.40;99.90;;;;;;5007543;28;20274;-82